Time;durP1;ratioP1;P1;durP2;ratioP2;P2;SDS_P1;SDS_P2;PMS_P1;PMS_P2;Temp;Humidity;BMP_temperature;BMP_pressure;BME280_temperature;BME280_humidity;BME280_pressure;Samples;Min_cycle;Max_cycle;Signal;HPM_P1;HPM_P2
2021/05/30 00:02:24;;;;;;;35.00;23.10;;;10.80;65.80;;;;;;5024722;28;20424;-83
2021/05/30 00:04:50;;;;;;;32.93;21.93;;;10.80;67.80;;;;;;5026151;28;20404;-82
2021/05/30 00:07:17;;;;;;;32.73;22.43;;;10.80;67.00;;;;;;5025934;28;20407;-80
2021/05/30 00:09:43;;;;;;;32.75;21.33;;;10.80;67.50;;;;;;5025975;28;20390;-82
2021/05/30 00:12:10;;;;;;;33.30;20.83;;;10.70;68.40;;;;;;5035171;28;20472;-82
2021/05/30 00:14:36;;;;;;;30.60;20.17;;;10.70;68.70;;;;;;5018034;28;20835;-85
2021/05/30 00:17:02;;;;;;;34.40;20.58;;;10.70;69.50;;;;;;5034412;28;20403;-84
2021/05/30 00:19:28;;;;;;;30.70;20.42;;;10.60;70.00;;;;;;5027802;28;20408;-81
2021/05/30 00:21:53;;;;;;;32.47;21.30;;;10.60;70.60;;;;;;5027170;28;20415;-82
2021/05/30 00:24:19;;;;;;;31.90;20.87;;;10.50;71.00;;;;;;5024530;28;20465;-81
2021/05/30 00:26:45;;;;;;;32.63;22.67;;;10.50;71.50;;;;;;5021163;28;20396;-82
2021/05/30 00:29:10;;;;;;;31.33;21.57;;;10.40;71.80;;;;;;5018607;28;20389;-82
2021/05/30 00:31:36;;;;;;;30.43;21.80;;;10.40;71.70;;;;;;5017288;28;20913;-82
2021/05/30 00:34:02;;;;;;;33.67;20.70;;;10.40;71.90;;;;;;5016532;28;20493;-83
2021/05/30 00:36:28;;;;;;;29.67;21.40;;;10.30;72.30;;;;;;4996877;28;20957;-82
2021/05/30 00:38:53;;;;;;;31.98;22.25;;;10.30;72.60;;;;;;5015016;28;20392;-82
2021/05/30 00:41:19;;;;;;;30.17;21.42;;;10.30;72.90;;;;;;4996866;28;20385;-82
2021/05/30 00:43:49;;;;;;;32.85;21.60;;;10.40;73.00;;;;;;5016445;28;20455;-79
2021/05/30 00:46:14;;;;;;;30.30;21.67;;;10.30;72.90;;;;;;5020081;28;20396;-81
2021/05/30 00:48:40;;;;;;;33.38;21.45;;;10.30;73.30;;;;;;5006333;28;20400;-81
2021/05/30 00:51:06;;;;;;;30.42;21.98;;;10.30;73.70;;;;;;5009271;28;20416;-81
2021/05/30 00:53:33;;;;;;;33.33;21.45;;;10.20;73.80;;;;;;5026617;28;20492;-82
2021/05/30 00:55:59;;;;;;;31.05;19.83;;;10.20;74.20;;;;;;5026072;28;20750;-81
2021/05/30 00:58:25;;;;;;;32.33;21.93;;;10.20;74.70;;;;;;5026621;28;20665;-81
2021/05/30 01:00:52;;;;;;;31.70;22.30;;;10.20;74.80;;;;;;5026415;28;20384;-81
2021/05/30 01:03:18;;;;;;;28.87;20.20;;;10.20;75.00;;;;;;5028907;28;20462;-80
2021/05/30 01:05:46;;;;;;;31.48;21.13;;;10.10;75.80;;;;;;5034734;28;20389;-78
2021/05/30 01:08:11;;;;;;;32.83;20.83;;;10.20;75.30;;;;;;5020048;28;20422;-79
2021/05/30 01:10:44;;;;;;;30.70;20.20;;;10.20;75.80;;;;;;5026524;28;20396;-81
2021/05/30 01:13:12;;;;;;;28.83;20.65;;;10.30;75.00;;;;;;5007616;28;20435;-81
2021/05/30 01:15:39;;;;;;;33.10;21.05;;;10.30;74.50;;;;;;5026016;28;20581;-81
2021/05/30 01:18:04;;;;;;;33.40;20.85;;;10.50;75.00;;;;;;5008230;28;20396;-79
2021/05/30 01:20:30;;;;;;;34.80;21.10;;;10.50;72.90;;;;;;5027328;28;20734;-81
2021/05/30 01:22:56;;;;;;;30.15;21.92;;;10.30;73.10;;;;;;5023852;28;20894;-82
2021/05/30 01:25:24;;;;;;;34.33;22.47;;;10.40;74.60;;;;;;5023712;28;20460;-81
2021/05/30 01:27:50;;;;;;;29.90;21.67;;;10.40;73.90;;;;;;5005016;28;20401;-80
2021/05/30 01:30:18;;;;;;;31.88;22.35;;;10.30;73.80;;;;;;5024431;28;20396;-81
2021/05/30 01:32:47;;;;;;;30.52;21.08;;;10.30;73.90;;;;;;5024140;28;20416;-81
2021/05/30 01:35:13;;;;;;;36.60;23.63;;;10.30;73.70;;;;;;5028076;28;20415;-80
2021/05/30 01:37:40;;;;;;;33.37;23.13;;;10.10;74.20;;;;;;5029458;28;20427;-80
2021/05/30 01:40:07;;;;;;;33.03;22.30;;;10.10;76.00;;;;;;5028026;28;20377;-80
2021/05/30 01:42:33;;;;;;;38.17;22.83;;;10.20;75.30;;;;;;5030782;28;20385;-80
2021/05/30 01:44:59;;;;;;;31.97;22.07;;;10.10;74.70;;;;;;5028570;28;20482;-80
2021/05/30 01:47:25;;;;;;;34.03;21.42;;;10.20;74.90;;;;;;5040201;23;20423;-73
2021/05/30 01:49:51;;;;;;;37.88;23.08;;;10.20;73.60;;;;;;5016800;28;20479;-74
2021/05/30 01:52:17;;;;;;;32.28;22.55;;;10.00;74.00;;;;;;5034571;28;20443;-75
2021/05/30 01:54:47;;;;;;;33.03;22.02;;;9.80;75.30;;;;;;5034165;28;20391;-75
2021/05/30 01:57:14;;;;;;;33.45;22.13;;;9.80;76.60;;;;;;5049045;28;20401;-75
2021/05/30 01:59:42;;;;;;;37.15;23.45;;;9.70;77.30;;;;;;5035779;28;20394;-75
2021/05/30 02:02:08;;;;;;;33.00;22.95;;;9.60;77.60;;;;;;5053558;28;20481;-75
2021/05/30 02:04:38;;;;;;;36.10;23.40;;;9.90;78.70;;;;;;5054274;28;20814;-75
2021/05/30 02:07:04;;;;;;;35.22;22.92;;;10.00;76.50;;;;;;5033735;28;20385;-74
2021/05/30 02:09:31;;;;;;;33.83;22.83;;;10.00;74.50;;;;;;5034087;28;20467;-74
2021/05/30 02:11:58;;;;;;;35.00;23.00;;;9.80;76.00;;;;;;5034850;28;20387;-75
2021/05/30 02:14:24;;;;;;;34.47;23.98;;;9.70;77.50;;;;;;5033114;28;20387;-75
2021/05/30 02:16:50;;;;;;;34.72;24.25;;;9.60;77.50;;;;;;5034871;28;20868;-76
2021/05/30 02:19:16;;;;;;;35.33;22.63;;;9.50;78.90;;;;;;5053459;28;20385;-75
2021/05/30 02:21:45;;;;;;;34.55;23.17;;;9.50;79.40;;;;;;5052855;28;20719;-75
2021/05/30 02:24:12;;;;;;;37.80;23.80;;;9.60;77.60;;;;;;5052842;28;20381;-76
2021/05/30 02:26:38;;;;;;;34.35;22.73;;;9.50;78.10;;;;;;5052593;28;20468;-75
2021/05/30 02:29:06;;;;;;;39.70;23.08;;;9.50;78.90;;;;;;5052553;28;20471;-75
2021/05/30 02:31:32;;;;;;;36.15;23.55;;;9.40;79.50;;;;;;5052977;28;20385;-74
2021/05/30 02:33:58;;;;;;;39.13;25.03;;;9.40;79.40;;;;;;5052977;28;20908;-75
2021/05/30 02:36:25;;;;;;;41.22;25.85;;;9.40;79.60;;;;;;5053890;28;20389;-75
2021/05/30 02:38:50;;;;;;;38.20;24.57;;;9.50;79.10;;;;;;5052202;28;20472;-75
2021/05/30 02:41:17;;;;;;;36.93;23.63;;;9.70;76.60;;;;;;5052583;28;20428;-75
2021/05/30 02:43:42;;;;;;;44.40;25.63;;;9.50;76.80;;;;;;5052290;28;20804;-75
2021/05/30 02:46:08;;;;;;;44.17;27.50;;;9.40;77.50;;;;;;5052474;28;20389;-76
2021/05/30 02:48:36;;;;;;;38.90;24.80;;;9.20;78.20;;;;;;5051501;28;20410;-75
2021/05/30 02:51:02;;;;;;;34.40;24.23;;;9.50;79.60;;;;;;5052537;28;20397;-75
2021/05/30 02:53:32;;;;;;;35.77;23.73;;;9.40;77.80;;;;;;5052258;28;20493;-74
2021/05/30 02:56:00;;;;;;;31.58;22.38;;;9.50;79.20;;;;;;5056287;28;20812;-74
2021/05/30 02:58:26;;;;;;;32.93;22.73;;;9.40;77.50;;;;;;5064599;28;20420;-74
2021/05/30 03:00:52;;;;;;;39.75;23.63;;;9.30;78.70;;;;;;5034415;28;20799;-75
2021/05/30 03:03:18;;;;;;;32.92;21.65;;;9.20;79.60;;;;;;5052912;28;20382;-74
2021/05/30 03:05:44;;;;;;;31.97;22.27;;;9.00;80.10;;;;;;5056167;28;20385;-74
2021/05/30 03:08:10;;;;;;;42.57;25.40;;;9.00;81.20;;;;;;5045182;28;20392;-73
2021/05/30 03:10:36;;;;;;;34.70;23.60;;;8.90;81.80;;;;;;5070941;28;20377;-73
2021/05/30 03:13:01;;;;;;;35.13;23.77;;;8.80;82.20;;;;;;5060348;28;20417;-74
2021/05/30 03:15:28;;;;;;;36.70;24.27;;;8.90;83.00;;;;;;5056740;28;20746;-74
2021/05/30 03:17:53;;;;;;;41.40;26.38;;;9.00;82.20;;;;;;5055628;28;20393;-74
2021/05/30 03:20:22;;;;;;;43.00;25.25;;;8.90;82.70;;;;;;5055612;28;20384;-74
2021/05/30 03:22:47;;;;;;;39.28;25.10;;;8.90;83.90;;;;;;5055747;28;20389;-73
2021/05/30 03:25:13;;;;;;;35.20;23.57;;;8.90;83.20;;;;;;5055873;28;20387;-73
2021/05/30 03:27:40;;;;;;;39.42;25.08;;;8.80;83.60;;;;;;5054806;28;20836;-74
2021/05/30 03:30:07;;;;;;;44.20;25.88;;;8.80;84.00;;;;;;5023092;28;20772;-75
2021/05/30 03:32:33;;;;;;;47.63;29.23;;;8.80;84.60;;;;;;5018720;28;20407;-74
2021/05/30 03:34:59;;;;;;;44.92;29.27;;;8.80;84.70;;;;;;5052501;28;20378;-74
2021/05/30 03:37:25;;;;;;;47.75;28.20;;;8.90;84.80;;;;;;5055789;28;20385;-74
2021/05/30 03:39:54;;;;;;;48.30;30.38;;;8.80;85.20;;;;;;5055088;28;20410;-74
2021/05/30 03:42:22;;;;;;;44.83;28.90;;;8.80;84.90;;;;;;5055479;28;20435;-74
2021/05/30 03:44:48;;;;;;;52.20;29.25;;;8.80;85.00;;;;;;5055100;28;20742;-75
2021/05/30 03:47:14;;;;;;;48.35;28.80;;;8.80;85.10;;;;;;5037451;28;20397;-75
2021/05/30 03:49:40;;;;;;;48.50;29.60;;;8.90;84.90;;;;;;5053341;28;20946;-75
2021/05/30 03:52:07;;;;;;;45.67;27.48;;;9.00;85.10;;;;;;5056019;28;20405;-75
2021/05/30 03:54:33;;;;;;;44.90;28.58;;;9.00;85.10;;;;;;5037740;28;20381;-74
2021/05/30 03:56:59;;;;;;;43.30;28.50;;;9.00;85.20;;;;;;5067591;28;20394;-74
2021/05/30 03:59:24;;;;;;;47.78;29.17;;;9.00;85.20;;;;;;5061412;28;20397;-75
2021/05/30 04:01:50;;;;;;;47.63;29.20;;;9.00;85.10;;;;;;5055506;28;20385;-75
2021/05/30 04:04:15;;;;;;;42.67;28.23;;;9.10;84.70;;;;;;5055448;28;20399;-74
2021/05/30 04:06:41;;;;;;;42.10;27.60;;;9.10;84.40;;;;;;5054468;28;20439;-74
2021/05/30 04:09:06;;;;;;;45.40;26.80;;;9.20;84.30;;;;;;5053882;28;20401;-73
2021/05/30 04:11:32;;;;;;;38.07;25.90;;;9.30;83.90;;;;;;5054378;28;20381;-74
2021/05/30 04:13:58;;;;;;;39.80;25.10;;;9.30;82.80;;;;;;5052483;28;20414;-74
2021/05/30 04:16:23;;;;;;;37.70;25.60;;;9.40;82.60;;;;;;5052407;28;20401;-74
2021/05/30 04:18:49;;;;;;;38.33;25.57;;;9.40;82.40;;;;;;5051408;28;20393;-75
2021/05/30 04:21:14;;;;;;;37.33;25.20;;;9.50;81.90;;;;;;5051541;28;20386;-75
2021/05/30 04:23:40;;;;;;;37.70;25.27;;;9.70;80.90;;;;;;5032461;28;20389;-75
2021/05/30 04:26:06;;;;;;;32.85;23.13;;;9.80;79.30;;;;;;5050855;28;20386;-75
2021/05/30 04:28:32;;;;;;;35.67;23.57;;;10.10;76.90;;;;;;5050085;28;20397;-75
2021/05/30 04:30:57;;;;;;;36.40;24.17;;;10.10;75.40;;;;;;5032725;28;20401;-75
2021/05/30 04:33:23;;;;;;;37.30;25.40;;;10.20;74.10;;;;;;5046518;28;20828;-75
2021/05/30 04:35:49;;;;;;;40.20;23.80;;;10.00;74.90;;;;;;5030881;28;20417;-75
2021/05/30 04:38:15;;;;;;;38.55;24.50;;;10.10;74.20;;;;;;5033813;28;20390;-75
2021/05/30 04:40:40;;;;;;;32.42;22.08;;;10.20;74.60;;;;;;5050571;28;20374;-74
2021/05/30 04:43:06;;;;;;;35.75;23.92;;;10.20;73.80;;;;;;5050321;28;20855;-74
2021/05/30 04:45:31;;;;;;;37.78;23.85;;;10.20;74.20;;;;;;5050860;28;20378;-74
2021/05/30 04:47:58;;;;;;;36.38;23.63;;;10.40;72.80;;;;;;5050027;28;20440;-74
2021/05/30 04:50:23;;;;;;;36.30;23.65;;;10.40;72.20;;;;;;5032641;28;20455;-74
2021/05/30 04:52:49;;;;;;;36.10;23.70;;;10.40;72.80;;;;;;5050202;28;20890;-75
2021/05/30 04:55:14;;;;;;;33.50;22.70;;;10.50;72.60;;;;;;5050369;28;20530;-76
2021/05/30 04:57:42;;;;;;;38.65;23.35;;;10.70;70.90;;;;;;5068564;28;20384;-75
2021/05/30 05:00:09;;;;;;;32.53;22.75;;;10.80;70.60;;;;;;5052724;28;20385;-75
2021/05/30 05:02:35;;;;;;;33.20;21.52;;;10.80;70.00;;;;;;5050705;28;20396;-75
2021/05/30 05:05:00;;;;;;;37.58;23.95;;;11.00;68.20;;;;;;5050707;28;20385;-75
2021/05/30 05:07:26;;;;;;;32.17;22.30;;;11.20;67.10;;;;;;5032220;28;20863;-75
2021/05/30 05:09:51;;;;;;;38.20;23.90;;;11.40;64.70;;;;;;5049789;28;20485;-75
2021/05/30 05:12:17;;;;;;;32.65;21.90;;;11.60;63.60;;;;;;5050156;28;20389;-76
2021/05/30 05:14:43;;;;;;;34.63;23.65;;;11.60;63.30;;;;;;5050197;28;20381;-75
2021/05/30 05:17:08;;;;;;;36.17;22.95;;;11.70;63.60;;;;;;5050357;28;20385;-75
2021/05/30 05:19:34;;;;;;;32.53;22.23;;;11.90;61.10;;;;;;5049955;28;20905;-74
2021/05/30 05:22:00;;;;;;;31.97;22.10;;;12.10;58.60;;;;;;5050047;28;20381;-74
2021/05/30 05:24:25;;;;;;;35.03;22.63;;;12.20;56.90;;;;;;5050220;28;20390;-75
2021/05/30 05:26:51;;;;;;;32.30;22.08;;;12.30;57.10;;;;;;5050074;28;20695;-75
2021/05/30 05:29:17;;;;;;;30.85;21.67;;;12.50;56.00;;;;;;5050226;28;20480;-75
2021/05/30 05:31:42;;;;;;;31.00;21.83;;;12.60;54.20;;;;;;5052590;28;20510;-75
2021/05/30 05:34:08;;;;;;;27.30;20.10;;;12.70;52.90;;;;;;5043822;28;20494;-75
2021/05/30 05:36:33;;;;;;;32.30;21.00;;;12.80;52.50;;;;;;5035220;28;20386;-75
2021/05/30 05:38:59;;;;;;;28.10;20.83;;;12.90;52.00;;;;;;5061164;28;20393;-74
2021/05/30 05:41:24;;;;;;;29.25;19.90;;;13.00;52.10;;;;;;5068476;28;20436;-73
2021/05/30 05:43:50;;;;;;;30.30;20.30;;;13.10;51.70;;;;;;5043785;28;20385;-75
2021/05/30 05:46:16;;;;;;;30.33;20.13;;;13.20;49.80;;;;;;5054364;28;20469;-76
2021/05/30 05:48:41;;;;;;;28.60;20.00;;;13.30;49.30;;;;;;5053144;28;20408;-76
2021/05/30 05:51:07;;;;;;;30.27;20.03;;;13.30;49.80;;;;;;5036261;28;20395;-76
2021/05/30 05:53:32;;;;;;;27.63;18.50;;;13.40;49.00;;;;;;5053536;28;20397;-76
2021/05/30 05:55:58;;;;;;;27.65;18.90;;;13.50;46.80;;;;;;5057632;28;20383;-76
2021/05/30 05:58:23;;;;;;;21.08;16.50;;;13.50;47.70;;;;;;5057002;28;20393;-76
2021/05/30 06:00:49;;;;;;;24.15;15.70;;;13.60;45.40;;;;;;5053069;28;20524;-75
2021/05/30 06:03:15;;;;;;;22.93;16.13;;;13.70;43.60;;;;;;5053195;28;20400;-76
2021/05/30 06:05:40;;;;;;;25.47;15.90;;;13.80;42.30;;;;;;5053147;28;20769;-75
2021/05/30 06:08:06;;;;;;;21.27;15.17;;;13.70;41.90;;;;;;5042342;28;20410;-74
2021/05/30 06:10:32;;;;;;;19.77;14.80;;;13.70;40.90;;;;;;5033090;28;20387;-75
2021/05/30 06:13:01;;;;;;;23.60;15.70;;;13.80;41.60;;;;;;5032925;28;20464;-75
2021/05/30 06:15:28;;;;;;;19.80;14.82;;;14.20;40.40;;;;;;5037833;28;20394;-75
2021/05/30 06:18:02;;;;;;;20.65;15.10;;;14.20;40.60;;;;;;5053036;28;20477;-75
2021/05/30 06:20:28;;;;;;;20.42;15.02;;;14.20;39.80;;;;;;5053337;28;20723;-75
2021/05/30 06:22:54;;;;;;;18.80;12.97;;;14.20;39.80;;;;;;5053137;28;20392;-75
2021/05/30 06:25:20;;;;;;;15.48;12.20;;;14.30;38.80;;;;;;5054565;28;20439;-76
2021/05/30 06:27:46;;;;;;;18.00;12.73;;;14.30;38.00;;;;;;5054176;28;20381;-75
2021/05/30 06:30:12;;;;;;;18.90;12.73;;;14.40;36.80;;;;;;5052710;28;21022;-75
2021/05/30 06:32:38;;;;;;;23.67;13.60;;;14.70;36.40;;;;;;5052115;28;20912;-75
2021/05/30 06:35:04;;;;;;;20.10;13.53;;;14.70;36.40;;;;;;5036102;28;20394;-75
2021/05/30 06:37:30;;;;;;;17.98;11.90;;;14.60;35.90;;;;;;5052556;28;20423;-75
2021/05/30 06:39:55;;;;;;;18.42;12.38;;;14.50;34.90;;;;;;5052518;28;20742;-76
2021/05/30 06:42:21;;;;;;;18.17;12.70;;;14.50;33.90;;;;;;5051220;28;20746;-75
2021/05/30 06:44:46;;;;;;;17.40;13.43;;;14.60;34.50;;;;;;5052210;28;20731;-75
2021/05/30 06:47:12;;;;;;;17.67;12.25;;;15.20;33.90;;;;;;5051960;28;20401;-75
2021/05/30 06:49:38;;;;;;;17.92;12.10;;;15.30;33.80;;;;;;5052208;28;20374;-77
2021/05/30 06:52:04;;;;;;;17.73;11.23;;;15.20;32.60;;;;;;5034612;28;20386;-75
2021/05/30 06:54:29;;;;;;;17.50;11.40;;;15.20;32.10;;;;;;5051711;28;20480;-76
2021/05/30 06:56:55;;;;;;;14.37;11.60;;;15.40;30.80;;;;;;5063709;28;20402;-76
2021/05/30 06:59:20;;;;;;;19.00;11.32;;;15.20;31.70;;;;;;5072761;28;20439;-77
2021/05/30 07:01:46;;;;;;;17.77;11.83;;;15.10;32.10;;;;;;5072101;28;20420;-74
2021/05/30 07:04:12;;;;;;;16.67;9.80;;;15.10;32.40;;;;;;5066711;28;20387;-77
2021/05/30 07:06:38;;;;;;;15.23;11.17;;;15.30;31.00;;;;;;5048441;28;20393;-75
2021/05/30 07:09:06;;;;;;;15.75;9.95;;;15.40;30.30;;;;;;5050924;28;20397;-76
2021/05/30 07:11:32;;;;;;;16.85;9.63;;;15.60;29.90;;;;;;5052087;28;20762;-75
2021/05/30 07:13:58;;;;;;;11.13;8.60;;;15.90;28.60;;;;;;5052301;28;20408;-76
2021/05/30 07:16:24;;;;;;;14.20;9.07;;;16.00;28.30;;;;;;5052079;28;20385;-76
2021/05/30 07:18:49;;;;;;;13.67;10.40;;;16.00;27.00;;;;;;5052325;28;20413;-76
2021/05/30 07:21:15;;;;;;;9.88;8.45;;;15.90;27.30;;;;;;5052600;28;20847;-75
2021/05/30 07:23:41;;;;;;;13.68;8.95;;;16.00;25.80;;;;;;5052655;28;20459;-76
2021/05/30 07:26:06;;;;;;;13.52;8.63;;;16.10;25.80;;;;;;5051711;28;21008;-76
2021/05/30 07:28:32;;;;;;;12.32;8.70;;;16.20;26.60;;;;;;5050134;28;20480;-76
2021/05/30 07:30:58;;;;;;;10.87;8.13;;;16.00;25.30;;;;;;5032562;28;20469;-76
2021/05/30 07:33:23;;;;;;;12.17;8.20;;;16.00;25.20;;;;;;5036615;28;20409;-77
2021/05/30 07:35:49;;;;;;;10.07;8.50;;;16.00;25.50;;;;;;5051998;28;20417;-76
2021/05/30 07:38:15;;;;;;;12.13;8.15;;;16.10;24.70;;;;;;5052268;28;20381;-76
2021/05/30 07:40:41;;;;;;;9.85;7.43;;;16.10;24.70;;;;;;5034544;28;20473;-76
2021/05/30 07:43:08;;;;;;;9.73;8.10;;;16.20;24.50;;;;;;5052413;28;20531;-76
2021/05/30 07:45:34;;;;;;;11.23;7.63;;;16.50;23.60;;;;;;5052757;28;20477;-76
2021/05/30 07:47:59;;;;;;;8.48;7.05;;;16.60;22.90;;;;;;5056083;23;20439;-70
2021/05/30 07:50:26;;;;;;;9.43;7.53;;;16.60;23.60;;;;;;5030605;28;20944;-71
2021/05/30 07:52:52;;;;;;;10.02;7.40;;;16.70;23.10;;;;;;5030200;28;20895;-70
2021/05/30 07:55:18;;;;;;;8.68;7.20;;;16.60;21.60;;;;;;5012563;28;20395;-71
2021/05/30 07:57:46;;;;;;;8.32;6.65;;;16.60;21.50;;;;;;5055746;28;20795;-71
2021/05/30 08:00:13;;;;;;;10.43;6.03;;;16.60;21.80;;;;;;5070720;28;20392;-71
2021/05/30 08:02:39;;;;;;;7.53;5.95;;;16.60;21.10;;;;;;5070485;28;20410;-72
2021/05/30 08:05:06;;;;;;;6.75;5.60;;;16.70;21.00;;;;;;5063465;28;20387;-70
2021/05/30 08:07:32;;;;;;;8.75;5.80;;;16.90;21.70;;;;;;5049230;28;20901;-70
2021/05/30 08:09:57;;;;;;;7.50;5.97;;;17.00;20.00;;;;;;5050475;28;20385;-71
2021/05/30 08:12:23;;;;;;;7.03;5.70;;;17.10;20.50;;;;;;5049698;28;20462;-70
2021/05/30 08:14:49;;;;;;;6.80;5.37;;;17.30;19.30;;;;;;5030377;28;20486;-70
2021/05/30 08:17:14;;;;;;;6.60;5.30;;;17.40;19.90;;;;;;5049708;28;20413;-71
2021/05/30 08:19:40;;;;;;;7.03;5.95;;;17.40;18.10;;;;;;5051149;28;20406;-70
2021/05/30 08:22:06;;;;;;;7.63;5.80;;;17.40;19.10;;;;;;5050641;28;20394;-70
2021/05/30 08:24:32;;;;;;;9.63;5.00;;;17.40;18.90;;;;;;5050012;28;20439;-71
2021/05/30 08:26:57;;;;;;;6.20;4.70;;;17.40;18.10;;;;;;5049671;28;20435;-71
2021/05/30 08:29:24;;;;;;;9.30;4.90;;;17.50;17.00;;;;;;5040874;28;20383;-71
2021/05/30 08:31:51;;;;;;;4.50;4.10;;;17.90;16.80;;;;;;5044361;28;20510;-72
2021/05/30 08:34:18;;;;;;;4.60;4.10;;;17.90;16.90;;;;;;5044473;28;20494;-72
2021/05/30 08:36:44;;;;;;;4.63;4.13;;;18.00;16.40;;;;;;5049502;28;20784;-71
2021/05/30 08:39:10;;;;;;;4.82;4.43;;;18.20;15.80;;;;;;5049423;28;20471;-70
2021/05/30 08:41:36;;;;;;;5.47;4.60;;;18.20;15.40;;;;;;5050055;28;20385;-72
2021/05/30 08:44:01;;;;;;;5.75;4.60;;;18.20;16.80;;;;;;5050143;28;20463;-74
2021/05/30 08:46:28;;;;;;;5.80;4.40;;;18.20;14.90;;;;;;5049991;28;20404;-72
2021/05/30 08:48:55;;;;;;;5.07;4.20;;;18.20;14.20;;;;;;5049404;28;20413;-72
2021/05/30 08:51:21;;;;;;;7.80;4.35;;;18.20;13.80;;;;;;5048986;28;20420;-71
2021/05/30 08:53:47;;;;;;;5.05;4.40;;;18.10;14.20;;;;;;5049547;28;20409;-72
2021/05/30 08:56:13;;;;;;;4.43;4.00;;;18.20;13.70;;;;;;5045139;28;20401;-72
2021/05/30 08:58:56;;;;;;;4.82;4.30;;;18.20;13.40;;;;;;5043149;28;20395;-69
2021/05/30 09:01:28;;;;;;;4.60;3.95;;;18.40;14.90;;;;;;5039243;28;20412;-72
2021/05/30 09:04:06;;;;;;;6.37;4.10;;;18.50;13.30;;;;;;5041968;28;20439;-71
2021/05/30 09:06:33;;;;;;;4.00;3.60;;;18.50;13.60;;;;;;5054301;28;20397;-71
2021/05/30 09:09:00;;;;;;;4.70;4.18;;;18.50;14.20;;;;;;5065564;28;20427;-71
2021/05/30 09:11:41;;;;;;;4.35;3.95;;;18.60;14.50;;;;;;5055553;28;20405;-72
2021/05/30 09:14:16;;;;;;;5.18;4.68;;;18.50;13.70;;;;;;5036875;28;20400;-72
2021/05/30 09:16:48;;;;;;;4.43;4.10;;;18.50;13.60;;;;;;5054740;28;20385;-73
2021/05/30 09:19:37;;;;;;;4.53;4.10;;;18.50;12.90;;;;;;5053859;28;20412;-72
2021/05/30 09:22:15;;;;;;;5.30;4.00;;;18.60;12.60;;;;;;5049472;28;20425;-72
2021/05/30 09:24:49;;;;;;;4.18;3.78;;;18.70;12.70;;;;;;5052711;28;20425;-71
2021/05/30 09:27:15;;;;;;;5.85;3.90;;;19.00;11.90;;;;;;5051505;28;20456;-71
2021/05/30 09:29:41;;;;;;;4.50;4.10;;;19.20;12.00;;;;;;5053274;28;20516;-69
2021/05/30 09:32:07;;;;;;;6.70;4.50;;;19.10;11.90;;;;;;5021158;28;20752;-72
2021/05/30 09:34:35;;;;;;;6.60;4.00;;;19.10;12.70;;;;;;5050422;28;20495;-72
2021/05/30 09:37:01;;;;;;;4.80;4.30;;;19.00;12.10;;;;;;5052480;28;20763;-72
2021/05/30 09:39:44;;;;;;;6.15;4.25;;;19.00;13.30;;;;;;5043827;28;20880;-72
2021/05/30 09:42:36;;;;;;;4.70;4.30;;;19.10;13.40;;;;;;5040915;28;20745;-71
2021/05/30 09:45:10;;;;;;;5.30;4.22;;;19.10;13.50;;;;;;5052717;28;20425;-71
2021/05/30 09:47:45;;;;;;;8.60;4.30;;;19.00;13.00;;;;;;5034957;28;20389;-71
2021/05/30 09:50:19;;;;;;;5.93;4.25;;;19.00;13.20;;;;;;5052556;28;20396;-71
2021/05/30 09:52:52;;;;;;;5.28;4.78;;;19.20;13.00;;;;;;5052584;28;20397;-71
2021/05/30 09:55:22;;;;;;;5.00;4.50;;;19.50;13.60;;;;;;5051723;28;20389;-71
2021/05/30 09:58:19;;;;;;;3.80;3.28;;;19.70;12.00;;;;;;5070458;28;20731;-70
2021/05/30 10:00:50;;;;;;;3.90;3.60;;;19.80;11.70;;;;;;5051843;28;20399;-72
2021/05/30 10:03:18;;;;;;;4.88;4.40;;;19.70;12.00;;;;;;5052084;28;20389;-71
2021/05/30 10:05:43;;;;;;;4.97;4.22;;;19.70;11.50;;;;;;5051610;28;20416;-72
2021/05/30 10:08:10;;;;;;;5.03;4.35;;;19.70;11.10;;;;;;5052018;28;20381;-71
2021/05/30 10:10:36;;;;;;;5.30;4.70;;;19.50;11.70;;;;;;5051176;28;20425;-71
2021/05/30 10:13:05;;;;;;;4.40;4.00;;;19.50;11.90;;;;;;5043257;28;20462;-71
2021/05/30 10:15:31;;;;;;;5.15;3.80;;;19.50;11.70;;;;;;5051796;28;20400;-70
2021/05/30 10:18:09;;;;;;;4.53;3.92;;;19.60;11.60;;;;;;5042674;28;20389;-70
2021/05/30 10:20:38;;;;;;;6.55;4.18;;;19.70;11.90;;;;;;5052154;28;20468;-69
2021/05/30 10:23:05;;;;;;;6.63;4.10;;;20.00;11.90;;;;;;5052067;28;20385;-69
2021/05/30 10:25:33;;;;;;;4.88;4.00;;;20.10;10.30;;;;;;5051219;28;20390;-70
2021/05/30 10:28:18;;;;;;;4.40;4.00;;;20.20;10.20;;;;;;5051531;28;20397;-70
2021/05/30 10:30:49;;;;;;;4.97;4.47;;;20.30;10.40;;;;;;5032365;28;20409;-72
2021/05/30 10:33:23;;;;;;;4.72;4.22;;;20.30;9.70;;;;;;5043071;28;20785;-70
2021/05/30 10:35:51;;;;;;;4.60;4.20;;;20.20;10.10;;;;;;5051325;28;20757;-70
2021/05/30 10:38:43;;;;;;;6.25;4.43;;;20.20;10.40;;;;;;5051545;28;20476;-70
2021/05/30 10:41:14;;;;;;;3.95;3.55;;;20.20;10.20;;;;;;5017498;28;20382;-69
2021/05/30 10:43:40;;;;;;;4.13;3.83;;;20.40;9.70;;;;;;5045245;28;20408;-69
2021/05/30 10:46:07;;;;;;;4.78;4.22;;;20.60;9.50;;;;;;5042437;28;20486;-70
2021/05/30 10:48:33;;;;;;;4.63;3.97;;;20.80;8.70;;;;;;5048488;28;20397;-68
2021/05/30 10:53:44;;;;;;;5.80;3.90;;;20.90;9.70;;;;;;5050900;28;20435;-70
2021/05/30 10:56:22;;;;;;;5.18;4.68;;;21.10;9.00;;;;;;5056941;28;20479;-69
2021/05/30 10:59:11;;;;;;;4.57;4.10;;;21.10;8.80;;;;;;5072402;28;20402;-69
2021/05/30 11:01:38;;;;;;;5.30;4.50;;;21.10;9.40;;;;;;5059774;28;20384;-70
2021/05/30 11:04:22;;;;;;;7.00;4.68;;;21.30;8.90;;;;;;5071838;28;20380;-70
2021/05/30 11:06:52;;;;;;;5.10;4.20;;;21.20;8.00;;;;;;5037787;28;21029;-68
2021/05/30 11:09:19;;;;;;;4.40;4.00;;;21.60;7.70;;;;;;5031297;28;20477;-71
2021/05/30 11:11:45;;;;;;;6.00;4.70;;;21.60;8.00;;;;;;5031356;28;20390;-70
2021/05/30 11:14:15;;;;;;;6.88;4.80;;;21.60;9.30;;;;;;5031734;28;20411;-70
2021/05/30 11:16:44;;;;;;;5.97;5.00;;;21.80;7.60;;;;;;5045189;28;20393;-70
2021/05/30 11:19:14;;;;;;;5.20;4.70;;;22.10;8.90;;;;;;5051378;28;20382;-70
2021/05/30 11:21:45;;;;;;;6.38;5.32;;;22.00;9.10;;;;;;5051572;28;20382;-69
2021/05/30 11:24:13;;;;;;;6.32;5.13;;;22.00;8.40;;;;;;5051149;28;20459;-70
2021/05/30 11:26:54;;;;;;;5.68;4.85;;;22.00;9.00;;;;;;5051261;28;20385;-70
2021/05/30 11:29:19;;;;;;;5.93;4.80;;;22.00;8.20;;;;;;5050600;28;20373;-69
2021/05/30 11:31:45;;;;;;;6.05;5.22;;;22.20;9.40;;;;;;5051346;28;20868;-69
2021/05/30 11:34:12;;;;;;;6.18;4.55;;;22.30;9.30;;;;;;5051111;28;20512;-69
2021/05/30 11:36:37;;;;;;;7.27;4.90;;;22.40;9.30;;;;;;5051562;28;20745;-70
2021/05/30 11:39:10;;;;;;;8.77;5.33;;;22.60;8.60;;;;;;5052560;28;20449;-69
2021/05/30 11:41:45;;;;;;;6.95;5.38;;;22.70;7.10;;;;;;5052241;28;20381;-70
2021/05/30 11:44:13;;;;;;;5.25;4.75;;;22.80;6.90;;;;;;5051693;28;20723;-69
2021/05/30 11:46:54;;;;;;;9.90;5.50;;;22.70;6.70;;;;;;5051528;28;20757;-70
2021/05/30 11:49:20;;;;;;;5.88;4.53;;;22.60;7.20;;;;;;5057485;28;20448;-69
2021/05/30 11:51:59;;;;;;;6.15;5.55;;;22.70;6.90;;;;;;5059420;28;20476;-71
2021/05/30 11:54:56;;;;;;;6.93;5.65;;;22.90;6.60;;;;;;5057945;28;20428;-71
2021/05/30 11:57:24;;;;;;;4.95;4.38;;;22.70;6.40;;;;;;5056593;28;20482;-69
2021/05/30 11:59:54;;;;;;;7.43;4.85;;;22.70;6.90;;;;;;5080129;28;20398;-71
2021/05/30 12:02:28;;;;;;;6.15;4.18;;;22.50;6.90;;;;;;5076222;28;20383;-69
2021/05/30 12:05:16;;;;;;;10.40;7.27;;;22.60;5.70;;;;;;5060556;28;20412;-69
2021/05/30 12:07:42;;;;;;;5.20;4.25;;;22.60;7.50;;;;;;5043106;28;20419;-69
2021/05/30 12:10:09;;;;;;;11.50;7.35;;;22.60;5.40;;;;;;5030871;28;20480;-69
2021/05/30 12:12:42;;;;;;;17.83;11.13;;;22.60;5.30;;;;;;5030410;28;20419;-70
2021/05/30 12:15:22;;;;;;;7.43;4.28;;;22.30;6.40;;;;;;5044108;28;20398;-72
2021/05/30 12:17:51;;;;;;;4.97;4.45;;;22.00;5.70;;;;;;5050396;28;20396;-70
2021/05/30 12:20:20;;;;;;;5.10;4.00;;;22.10;5.40;;;;;;5050491;28;20390;-69
2021/05/30 12:22:46;;;;;;;5.38;4.88;;;22.00;5.80;;;;;;5050382;28;20717;-69
2021/05/30 12:25:12;;;;;;;5.00;4.50;;;22.20;6.30;;;;;;5050160;28;20785;-70
2021/05/30 12:27:38;;;;;;;5.63;4.65;;;22.40;5.60;;;;;;5049734;28;20401;-70
2021/05/30 12:30:05;;;;;;;4.87;4.23;;;22.50;5.90;;;;;;5050252;28;20400;-73
2021/05/30 12:32:31;;;;;;;4.50;4.10;;;22.70;6.10;;;;;;5032321;28;20762;-70
2021/05/30 12:34:56;;;;;;;5.43;3.80;;;22.60;5.50;;;;;;5049612;28;20898;-72
2021/05/30 12:37:39;;;;;;;4.17;3.77;;;22.60;5.00;;;;;;5050204;28;20878;-70
2021/05/30 12:40:07;;;;;;;3.70;3.50;;;22.30;5.00;;;;;;5049959;28;20393;-72
2021/05/30 12:42:32;;;;;;;7.03;6.18;;;22.30;4.70;;;;;;5054193;28;20385;-71
2021/05/30 12:45:06;;;;;;;5.10;3.95;;;22.40;6.30;;;;;;5054043;28;20454;-72